createdAt,value
2018-09-26T00:00:02.924Z,1.17
2018-09-26T00:02:36.327Z,0.90
2018-09-26T00:05:13.244Z,1.17
2018-09-26T00:07:47.899Z,1.60
2018-09-26T00:10:20.148Z,0.83
2018-09-26T00:12:54.985Z,1.37
2018-09-26T00:15:25.241Z,1.27
2018-09-26T00:17:57.333Z,1.20
2018-09-26T00:23:31.651Z,1.40
2018-09-26T00:26:02.991Z,1.60
2018-09-26T00:28:35.056Z,1.17
2018-09-26T00:31:06.562Z,1.20
2018-09-26T00:33:37.832Z,1.57
2018-09-26T00:36:12.369Z,2.23
2018-09-26T00:38:44.739Z,3.47
2018-09-26T00:41:16.927Z,3.53
2018-09-26T00:43:47.548Z,3.47
2018-09-26T00:46:20.291Z,2.83
2018-09-26T00:48:53.070Z,2.70
2018-09-26T00:51:25.854Z,2.30
2018-09-26T00:54:02.710Z,2.20
2018-09-26T00:56:35.682Z,1.60
2018-09-26T00:59:10.294Z,1.80
2018-09-26T01:01:44.408Z,2.46
2018-09-26T01:04:16.717Z,1.98
2018-09-26T01:06:49.736Z,1.53
2018-09-26T01:09:22.226Z,1.60
2018-09-26T01:11:58.793Z,1.57
2018-09-26T01:14:28.014Z,1.82
2018-09-26T01:16:58.735Z,1.80
2018-09-26T01:19:30.205Z,1.70
2018-09-26T01:22:00.683Z,2.02
2018-09-26T01:24:34.323Z,2.03
2018-09-26T01:27:09.049Z,1.90
2018-09-26T01:29:41.571Z,2.02
2018-09-26T01:32:15.364Z,2.37
2018-09-26T01:34:47.097Z,1.80
2018-09-26T01:37:19.533Z,2.10
2018-09-26T01:39:53.971Z,2.00
2018-09-26T01:42:27.416Z,2.00
2018-09-26T01:44:59.329Z,2.10
2018-09-26T01:47:33.977Z,2.25
2018-09-26T01:50:09.397Z,2.37
2018-09-26T01:52:38.659Z,2.80
2018-09-26T01:55:15.198Z,2.20
2018-09-26T01:57:47.253Z,2.00
2018-09-26T02:00:20.756Z,2.23
2018-09-26T02:02:54.126Z,2.35
2018-09-26T02:05:28.547Z,2.13
2018-09-26T02:07:58.841Z,2.43
2018-09-26T02:10:30.929Z,1.87
2018-09-26T02:13:00.703Z,2.00
2018-09-26T02:15:31.688Z,1.97
2018-09-26T02:18:02.867Z,2.00
2018-09-26T02:20:32.229Z,2.00
2018-09-26T02:23:12.288Z,1.83
2018-09-26T02:25:43.303Z,2.23
2018-09-26T02:28:17.145Z,1.60
2018-09-26T02:30:49.345Z,2.37
2018-09-26T02:33:25.382Z,1.97
2018-09-26T02:35:59.684Z,1.97
2018-09-26T02:38:29.855Z,2.37
2018-09-26T02:40:59.142Z,2.30
2018-09-26T02:43:32.671Z,2.00
2018-09-26T02:46:07.474Z,2.17
2018-09-26T02:48:45.679Z,2.22
2018-09-26T02:51:19.477Z,1.80
2018-09-26T02:53:50.702Z,1.98
2018-09-26T02:56:24.697Z,2.23
2018-09-26T02:58:58.683Z,2.47
2018-09-26T03:01:29.834Z,1.97
2018-09-26T03:04:00.383Z,2.13
2018-09-26T03:06:32.069Z,2.47
2018-09-26T03:09:05.300Z,2.22
2018-09-26T03:11:41.425Z,1.90
2018-09-26T03:14:13.888Z,2.07
2018-09-26T03:16:49.164Z,2.07
2018-09-26T03:19:23.815Z,1.73
2018-09-26T03:21:57.431Z,1.92
2018-09-26T03:24:28.759Z,1.80
2018-09-26T03:26:59.863Z,1.67
2018-09-26T03:29:33.210Z,1.90
2018-09-26T03:32:03.131Z,2.12
2018-09-26T03:34:33.156Z,2.42
2018-09-26T03:37:03.315Z,2.08
2018-09-26T03:39:32.674Z,1.93
2018-09-26T03:42:02.276Z,1.63
2018-09-26T03:44:31.601Z,1.63
2018-09-26T03:47:00.654Z,1.90
2018-09-26T03:49:29.989Z,1.73
2018-09-26T03:51:59.264Z,1.57
2018-09-26T03:54:28.592Z,1.60
2018-09-26T03:56:58.569Z,1.60
2018-09-26T03:59:27.590Z,1.80
2018-09-26T04:01:56.938Z,1.82
2018-09-26T04:04:26.055Z,1.50
2018-09-26T04:06:55.146Z,1.70
2018-09-26T04:09:24.241Z,1.83
2018-09-26T04:11:53.294Z,1.50
2018-09-26T04:14:22.905Z,1.70
2018-09-26T04:16:52.849Z,2.98
2018-09-26T04:19:21.904Z,2.00
2018-09-26T04:21:51.065Z,2.17
2018-09-26T04:24:21.526Z,2.00
2018-09-26T04:26:51.012Z,2.50
2018-09-26T04:29:20.211Z,1.97
2018-09-26T04:31:49.997Z,1.90
2018-09-26T04:34:19.361Z,2.20
2018-09-26T04:36:48.909Z,2.43
2018-09-26T04:39:18.680Z,2.25
2018-09-26T04:41:48.078Z,2.08
2018-09-26T04:44:17.485Z,2.50
2018-09-26T04:46:47.227Z,3.58
2018-09-26T04:49:16.918Z,2.40
2018-09-26T04:51:46.863Z,2.05
2018-09-26T04:54:16.698Z,2.10
2018-09-26T04:56:46.152Z,1.75
2018-09-26T04:59:15.857Z,2.30
2018-09-26T05:01:46.123Z,2.00
2018-09-26T05:04:15.553Z,2.03
2018-09-26T05:06:45.151Z,1.90
2018-09-26T05:09:14.688Z,2.43
2018-09-26T05:11:44.316Z,2.13
2018-09-26T05:14:13.757Z,1.90
2018-09-26T05:16:43.441Z,2.20
2018-09-26T05:19:13.023Z,1.75
2018-09-26T05:21:43.544Z,1.87
2018-09-26T05:24:12.835Z,2.22
2018-09-26T05:26:42.985Z,2.20
2018-09-26T05:29:12.456Z,1.77
2018-09-26T05:31:41.864Z,1.77
2018-09-26T05:34:12.093Z,2.00
2018-09-26T05:36:42.765Z,1.63
2018-09-26T05:39:12.975Z,1.83
2018-09-26T05:41:42.853Z,1.90
2018-09-26T05:44:12.671Z,1.85
2018-09-26T05:46:42.402Z,1.83
2018-09-26T05:49:12.339Z,1.63
2018-09-26T05:51:42.258Z,1.83
2018-09-26T05:54:12.551Z,2.40
2018-09-26T05:56:42.176Z,2.40
2018-09-26T05:59:11.622Z,2.47
2018-09-26T06:01:41.438Z,2.40
2018-09-26T06:04:11.365Z,2.43
2018-09-26T06:06:40.983Z,2.63
2018-09-26T06:09:12.526Z,2.17
2018-09-26T06:11:42.634Z,3.30
2018-09-26T06:14:12.908Z,3.40
2018-09-26T06:16:42.337Z,3.40
2018-09-26T06:19:12.574Z,2.72
2018-09-26T06:21:42.649Z,2.57
2018-09-26T06:24:12.658Z,2.90
2018-09-26T06:26:42.689Z,2.37
2018-09-26T06:29:13.143Z,1.80
2018-09-26T06:31:42.572Z,2.00
2018-09-26T06:34:12.227Z,2.03
2018-09-26T06:36:41.543Z,2.03
2018-09-26T06:39:12.525Z,2.47
2018-09-26T06:41:42.501Z,2.80
2018-09-26T06:44:12.297Z,2.50
2018-09-26T06:46:41.882Z,3.10
2018-09-26T06:49:12.128Z,2.98
2018-09-26T06:51:42.221Z,4.08
2018-09-26T06:54:11.859Z,4.50
2018-09-26T06:56:41.556Z,4.17
2018-09-26T06:59:11.372Z,5.40
2018-09-26T07:04:41.785Z,4.62
2018-09-26T07:07:11.582Z,3.90
2018-09-26T07:09:40.990Z,3.23
2018-09-26T07:12:11.087Z,2.70
2018-09-26T07:14:41.653Z,2.00
2018-09-26T07:17:11.385Z,3.10
2018-09-26T07:19:40.736Z,3.53
2018-09-26T07:22:10.189Z,2.23
2018-09-26T07:24:39.477Z,2.07
2018-09-26T07:27:08.914Z,2.00
2018-09-26T07:29:38.163Z,1.80
2018-09-26T07:32:07.748Z,2.47
2018-09-26T07:34:39.700Z,2.67
2018-09-26T07:37:09.556Z,2.80
2018-09-26T07:39:40.293Z,3.10
2018-09-26T07:42:15.750Z,2.20
2018-09-26T07:44:45.628Z,1.70
2018-09-26T07:47:15.361Z,1.60
2018-09-26T07:49:45.435Z,1.70
2018-09-26T07:52:15.258Z,1.80
2018-09-26T07:54:44.979Z,1.40
2018-09-26T07:57:14.190Z,1.82
2018-09-26T07:59:44.657Z,1.23
2018-09-26T08:02:14.209Z,1.10
2018-09-26T08:04:44.107Z,1.10
2018-09-26T08:07:14.142Z,1.50
2018-09-26T08:09:43.774Z,1.40
2018-09-26T08:12:13.449Z,1.10
2018-09-26T08:14:43.018Z,1.50
2018-09-26T08:17:12.544Z,1.50
2018-09-26T08:19:41.892Z,1.20
2018-09-26T08:22:11.367Z,1.47
2018-09-26T08:24:40.725Z,1.90
2018-09-26T08:27:10.143Z,1.97
2018-09-26T08:29:39.486Z,2.33
2018-09-26T08:32:09.518Z,2.30
2018-09-26T08:34:38.975Z,2.60
2018-09-26T08:37:08.568Z,2.75
2018-09-26T08:39:37.795Z,2.57
2018-09-26T08:42:07.185Z,2.80
2018-09-26T08:44:36.678Z,2.70
2018-09-26T08:47:06.246Z,3.08
2018-09-26T08:49:35.482Z,3.13
2018-09-26T08:52:04.757Z,3.47
2018-09-26T08:54:34.049Z,3.87
2018-09-26T08:57:03.212Z,4.33
2018-09-26T08:59:32.789Z,4.37
2018-09-26T09:02:02.097Z,3.40
2018-09-26T09:04:31.587Z,3.20
2018-09-26T09:07:00.894Z,2.87
2018-09-26T09:09:30.147Z,4.10
2018-09-26T09:11:59.721Z,2.07
2018-09-26T09:14:29.379Z,2.17
2018-09-26T09:16:58.695Z,2.63
2018-09-26T09:19:28.119Z,2.20
2018-09-26T09:21:57.516Z,2.58
2018-09-26T09:24:26.826Z,2.00
2018-09-26T09:26:56.235Z,2.27
2018-09-26T09:29:25.745Z,1.97
2018-09-26T09:31:55.451Z,5.97
2018-09-26T09:34:24.756Z,5.27
2018-09-26T09:36:53.974Z,4.70
2018-09-26T09:39:23.247Z,6.20
2018-09-26T09:41:53.005Z,3.70
2018-09-26T09:44:23.230Z,2.77
2018-09-26T09:46:53.061Z,2.73
2018-09-26T09:49:22.490Z,3.57
2018-09-26T09:51:51.945Z,3.30
2018-09-26T09:54:21.097Z,3.42
2018-09-26T09:56:50.548Z,3.72
2018-09-26T09:59:20.073Z,4.10
2018-09-26T10:01:49.581Z,4.47
2018-09-26T10:04:19.922Z,5.40
2018-09-26T10:06:50.371Z,5.63
2018-09-26T10:09:21.012Z,5.80
2018-09-26T10:11:50.878Z,4.83
2018-09-26T10:14:20.708Z,5.20
2018-09-26T10:16:50.338Z,5.05
2018-09-26T10:19:19.836Z,4.93
2018-09-26T10:21:49.713Z,5.00
2018-09-26T10:24:20.508Z,5.60
2018-09-26T10:26:50.156Z,3.90
2018-09-26T10:29:19.809Z,4.30
2018-09-26T10:31:49.671Z,3.65
2018-09-26T10:34:20.026Z,4.53
2018-09-26T10:36:50.246Z,2.80
2018-09-26T10:39:20.086Z,4.08
2018-09-26T10:46:46.714Z,3.23
2018-09-26T10:49:16.697Z,3.20
2018-09-26T10:51:46.503Z,2.60
2018-09-26T10:54:16.056Z,1.60
2018-09-26T10:56:45.440Z,1.40
2018-09-26T10:59:16.042Z,1.47
2018-09-26T11:01:46.824Z,1.60
2018-09-26T11:04:16.482Z,2.40
2018-09-26T11:06:46.314Z,2.47
2018-09-26T11:09:15.767Z,1.80
2018-09-26T11:11:45.490Z,2.75
2018-09-26T11:14:15.259Z,1.98
2018-09-26T11:16:45.066Z,1.63
2018-09-26T11:19:14.694Z,2.00
2018-09-26T11:21:45.912Z,1.40
2018-09-26T11:24:15.260Z,1.87
2018-09-26T11:26:44.964Z,1.60
2018-09-26T11:29:14.869Z,1.53
2018-09-26T11:31:44.855Z,1.92
2018-09-26T11:34:14.655Z,1.87
2018-09-26T11:36:44.472Z,1.42
2018-09-26T11:39:15.465Z,1.60
2018-09-26T11:41:45.440Z,1.30
2018-09-26T11:44:14.979Z,1.50
2018-09-26T11:46:44.855Z,1.87
2018-09-26T11:49:15.860Z,1.33
2018-09-26T11:51:45.773Z,1.40
2018-09-26T11:54:16.668Z,1.30
2018-09-26T11:56:47.326Z,1.20
2018-09-26T11:59:17.022Z,1.43
2018-09-26T12:01:46.845Z,1.43
2018-09-26T12:04:16.987Z,1.30
2018-09-26T12:06:46.852Z,1.27
2018-09-26T12:09:16.535Z,1.00
2018-09-26T12:11:46.451Z,1.20
2018-09-26T12:14:16.267Z,1.53
2018-09-26T12:16:46.693Z,1.00
2018-09-26T12:19:16.379Z,0.93
2018-09-26T12:21:46.107Z,1.07
2018-09-26T12:24:16.234Z,1.03
2018-09-26T12:26:45.906Z,1.20
2018-09-26T12:29:15.542Z,1.00
2018-09-26T12:31:45.317Z,1.00
2018-09-26T12:34:15.046Z,1.10
2018-09-26T12:36:44.914Z,1.10
2018-09-26T12:39:14.875Z,1.20
2018-09-26T12:41:44.936Z,1.10
2018-09-26T12:44:14.988Z,1.10
2018-09-26T12:46:45.532Z,1.00
2018-09-26T12:49:15.397Z,1.10
2018-09-26T12:51:44.848Z,1.30
2018-09-26T12:54:14.611Z,1.23
2018-09-26T12:56:44.398Z,1.22
2018-09-26T12:59:14.476Z,1.50
2018-09-26T13:01:44.492Z,1.25
2018-09-26T13:04:14.098Z,1.30
2018-09-26T13:06:44.094Z,1.10
2018-09-26T13:09:13.997Z,1.50
2018-09-26T13:11:44.063Z,1.40
2018-09-26T13:14:13.775Z,1.30
2018-09-26T13:16:43.359Z,1.70
2018-09-26T13:19:14.025Z,1.62
2018-09-26T13:21:43.616Z,1.50
2018-09-26T13:24:13.267Z,1.50
2018-09-26T13:26:42.829Z,1.60
2018-09-26T13:29:12.361Z,1.50
2018-09-26T13:31:42.383Z,1.90
2018-09-26T13:34:12.411Z,2.20
2018-09-26T13:36:42.429Z,2.13
2018-09-26T13:39:12.553Z,1.65
2018-09-26T13:41:42.835Z,1.70
2018-09-26T13:44:12.525Z,1.77
2018-09-26T13:46:42.284Z,1.53
2018-09-26T13:49:12.803Z,1.70
2018-09-26T13:51:42.376Z,2.03
2018-09-26T13:54:12.333Z,2.23
2018-09-26T13:56:42.511Z,1.90
2018-09-26T13:59:12.273Z,1.90
2018-09-26T14:01:42.222Z,1.77
2018-09-26T14:04:11.912Z,1.80
2018-09-26T14:06:42.640Z,1.95
2018-09-26T14:09:13.243Z,1.90
2018-09-26T14:11:43.073Z,1.80
2018-09-26T14:14:12.615Z,1.87
2018-09-26T14:16:42.561Z,1.80
2018-09-26T14:19:12.197Z,1.20
2018-09-26T14:21:42.581Z,1.67
2018-09-26T14:24:12.356Z,1.60
2018-09-26T14:26:42.131Z,1.50
2018-09-26T14:29:11.985Z,1.50
2018-09-26T14:31:41.860Z,1.50
2018-09-26T14:34:11.522Z,1.70
2018-09-26T14:36:41.115Z,1.80
2018-09-26T14:39:11.675Z,1.92
2018-09-26T14:41:41.498Z,2.23
2018-09-26T14:44:12.047Z,1.77
2018-09-26T14:46:42.122Z,1.80
2018-09-26T14:49:11.846Z,1.60
2018-09-26T14:51:42.237Z,1.63
2018-09-26T14:54:12.006Z,1.80
2018-09-26T14:56:41.980Z,1.83
2018-09-26T14:59:11.936Z,1.60
2018-09-26T15:01:43.188Z,1.80
2018-09-26T15:04:12.977Z,1.87
2018-09-26T15:06:44.198Z,1.72
2018-09-26T15:09:14.025Z,1.63
2018-09-26T15:11:44.615Z,1.67
2018-09-26T15:14:14.331Z,2.20
2018-09-26T15:16:44.562Z,2.10
2018-09-26T15:19:15.459Z,1.60
2018-09-26T15:21:45.202Z,1.50
2018-09-26T15:24:15.213Z,1.80
2018-09-26T15:26:45.077Z,1.98
2018-09-26T15:29:15.254Z,1.70
2018-09-26T15:31:44.970Z,1.53
2018-09-26T15:34:15.640Z,1.80
2018-09-26T15:36:45.622Z,1.97
2018-09-26T15:39:20.096Z,1.67
2018-09-26T15:41:50.357Z,1.63
2018-09-26T15:44:20.446Z,1.70
2018-09-26T15:46:50.794Z,1.50
2018-09-26T15:49:20.864Z,2.10
2018-09-26T15:51:50.427Z,1.60
2018-09-26T15:54:22.618Z,1.93
2018-09-26T15:56:53.709Z,1.60
2018-09-26T15:59:23.425Z,2.00
2018-09-26T16:01:53.082Z,1.73
2018-09-26T16:04:26.617Z,1.70
2018-09-26T16:07:11.783Z,2.03
2018-09-26T16:09:42.943Z,1.70
2018-09-26T16:12:13.838Z,1.90
2018-09-26T16:14:45.878Z,1.83
2018-09-26T16:17:15.986Z,1.70
2018-09-26T16:19:46.265Z,1.97
2018-09-26T16:22:16.196Z,1.57
2018-09-26T16:24:45.868Z,1.97
2018-09-26T16:27:15.447Z,1.70
2018-09-26T16:29:45.296Z,1.90
2018-09-26T16:32:15.109Z,2.33
2018-09-26T16:34:45.919Z,2.20
2018-09-26T16:37:16.177Z,1.90
2018-09-26T16:39:48.830Z,1.70
2018-09-26T16:42:18.601Z,1.80
2018-09-26T16:44:52.251Z,2.10
2018-09-26T16:47:22.351Z,1.57
2018-09-26T16:49:53.032Z,1.80
2018-09-26T16:52:23.945Z,1.50
2018-09-26T16:54:55.745Z,1.70
2018-09-26T16:57:25.281Z,1.80
2018-09-26T16:59:54.964Z,1.53
2018-09-26T17:02:24.824Z,1.92
2018-09-26T17:04:54.068Z,1.80
2018-09-26T17:07:23.326Z,1.83
2018-09-26T17:09:53.154Z,2.20
2018-09-26T17:12:22.943Z,2.07
2018-09-26T17:14:52.746Z,1.90
2018-09-26T17:17:22.694Z,1.70
2018-09-26T17:19:54.767Z,2.22
2018-09-26T17:22:24.579Z,1.80
2018-09-26T17:24:53.956Z,1.90
2018-09-26T17:27:23.640Z,1.97
2018-09-26T17:29:54.381Z,2.47
2018-09-26T17:32:23.909Z,1.77
2018-09-26T17:34:53.927Z,2.10
2018-09-26T17:37:23.508Z,2.13
2018-09-26T17:39:53.141Z,2.87
2018-09-26T17:42:25.145Z,2.70
2018-09-26T17:44:54.773Z,2.80
2018-09-26T17:47:24.297Z,2.17
2018-09-26T17:49:54.141Z,2.07
2018-09-26T17:52:23.646Z,2.20
2018-09-26T17:54:53.425Z,2.10
2018-09-26T17:57:23.009Z,1.87
2018-09-26T18:04:50.931Z,2.40
2018-09-26T18:07:21.080Z,2.42
2018-09-26T18:09:50.815Z,2.23
2018-09-26T18:12:20.730Z,3.20
2018-09-26T18:14:51.046Z,2.70
2018-09-26T18:17:20.666Z,2.30
2018-09-26T18:19:50.456Z,3.20
2018-09-26T18:22:22.073Z,3.43
2018-09-26T18:24:51.778Z,4.20
2018-09-26T18:27:21.596Z,4.37
2018-09-26T18:29:51.455Z,3.80
2018-09-26T18:32:21.808Z,3.40
2018-09-26T18:34:51.278Z,3.00
2018-09-26T18:37:20.785Z,3.80
2018-09-26T18:39:50.120Z,3.70
2018-09-26T18:42:21.261Z,4.00
2018-09-26T18:44:55.415Z,3.73
2018-09-26T18:47:25.457Z,4.02
2018-09-26T18:50:27.633Z,4.10
2018-09-26T18:52:58.567Z,3.30
2018-09-26T18:55:31.592Z,4.73
2018-09-26T18:58:17.869Z,4.63
2018-09-26T19:01:03.691Z,4.63
2018-09-26T19:06:20.679Z,5.43
2018-09-26T19:08:51.419Z,5.42
2018-09-26T19:11:22.433Z,5.10
2018-09-26T19:14:03.202Z,5.83
2018-09-26T19:16:36.493Z,5.10
2018-09-26T19:19:12.344Z,5.40
2018-09-26T19:21:57.072Z,4.15
2018-09-26T19:24:33.516Z,4.80
2018-09-26T19:27:05.828Z,5.03
2018-09-26T19:29:38.220Z,4.73
2018-09-26T19:32:09.071Z,4.75
2018-09-26T19:34:39.722Z,4.47
2018-09-26T19:37:11.368Z,4.13
2018-09-26T19:39:45.831Z,5.47
2018-09-26T19:42:16.124Z,6.40
2018-09-26T19:44:47.146Z,5.60
2018-09-26T19:47:17.537Z,5.03
2018-09-26T19:49:49.068Z,4.77
2018-09-26T19:52:19.817Z,4.17
2018-09-26T19:54:51.736Z,4.65
2018-09-26T19:57:27.364Z,4.57
2018-09-26T19:59:58.582Z,3.73
2018-09-26T20:02:28.723Z,3.67
2018-09-26T20:04:58.712Z,3.10
2018-09-26T20:07:29.230Z,3.73
2018-09-26T20:10:05.274Z,3.95
2018-09-26T20:12:36.715Z,3.37
2018-09-26T20:15:11.064Z,3.37
2018-09-26T20:17:41.355Z,3.35
2018-09-26T20:20:10.828Z,3.37
2018-09-26T20:22:40.638Z,3.50
2018-09-26T20:25:10.507Z,3.57
2018-09-26T20:27:39.829Z,3.40
2018-09-26T20:30:09.771Z,3.47
2018-09-26T20:32:39.711Z,3.77
2018-09-26T20:35:09.957Z,3.63
2018-09-26T20:37:42.326Z,2.85
2018-09-26T20:40:12.674Z,3.10
2018-09-26T20:42:42.291Z,3.37
2018-09-26T20:45:11.773Z,4.20
2018-09-26T20:47:43.793Z,3.67
2018-09-26T20:50:14.460Z,4.03
2018-09-26T20:52:45.144Z,3.90
2018-09-26T20:55:16.225Z,4.00
2018-09-26T20:57:45.577Z,4.30
2018-09-26T21:00:16.752Z,4.10
2018-09-26T21:02:47.080Z,3.73
2018-09-26T21:05:19.121Z,3.55
2018-09-26T21:07:49.689Z,3.42
2018-09-26T21:10:33.274Z,3.94
2018-09-26T21:13:11.147Z,3.90
2018-09-26T21:15:43.820Z,3.53
2018-09-26T21:18:15.327Z,4.30
2018-09-26T21:20:44.890Z,3.65
2018-09-26T21:23:14.836Z,3.47
2018-09-26T21:25:44.445Z,2.72
2018-09-26T21:28:14.257Z,3.30
2018-09-26T21:30:43.973Z,3.43
2018-09-26T21:33:13.285Z,2.97
2018-09-26T21:35:42.917Z,3.40
2018-09-26T21:38:12.341Z,2.70
2018-09-26T21:40:42.312Z,2.98
2018-09-26T21:43:12.544Z,3.33
2018-09-26T21:45:41.871Z,3.70
2018-09-26T21:48:11.693Z,3.25
2018-09-26T21:50:41.198Z,3.57
2018-09-26T21:53:10.840Z,2.90
2018-09-26T21:55:40.860Z,3.03
2018-09-26T21:58:10.180Z,3.10
2018-09-26T22:00:43.858Z,2.60
2018-09-26T22:03:13.224Z,3.17
2018-09-26T22:05:43.370Z,2.70
2018-09-26T22:08:12.866Z,3.17
2018-09-26T22:10:42.313Z,3.37
2018-09-26T22:13:11.945Z,3.20
2018-09-26T22:15:41.306Z,3.73
2018-09-26T22:18:10.555Z,3.30
2018-09-26T22:20:39.852Z,2.93
2018-09-26T22:23:09.589Z,2.77
2018-09-26T22:25:38.862Z,2.72
2018-09-26T22:28:08.587Z,2.43
2018-09-26T22:30:37.825Z,2.50
2018-09-26T22:33:07.015Z,2.93
2018-09-26T22:35:36.241Z,3.17
2018-09-26T22:38:05.889Z,3.20
2018-09-26T22:40:35.224Z,3.07
2018-09-26T22:43:04.460Z,3.00
2018-09-26T22:45:34.362Z,2.53
2018-09-26T22:48:03.900Z,2.97
2018-09-26T22:50:33.250Z,3.43
2018-09-26T22:53:02.563Z,3.12
2018-09-26T22:55:31.725Z,2.90
2018-09-26T22:58:00.934Z,2.60
2018-09-26T23:00:30.109Z,2.40
2018-09-26T23:02:59.305Z,2.37
2018-09-26T23:05:28.817Z,2.33
2018-09-26T23:07:57.857Z,2.10
2018-09-26T23:10:27.084Z,2.43
2018-09-26T23:12:56.273Z,2.20
2018-09-26T23:15:25.497Z,2.42
2018-09-26T23:17:54.718Z,2.40
2018-09-26T23:20:24.024Z,2.47
2018-09-26T23:22:53.062Z,1.87
2018-09-26T23:25:22.220Z,2.37
2018-09-26T23:27:51.256Z,2.80
2018-09-26T23:30:20.487Z,2.50
2018-09-26T23:32:50.023Z,2.27
2018-09-26T23:35:19.234Z,2.60
2018-09-26T23:37:48.400Z,2.70
2018-09-26T23:40:17.592Z,2.50
2018-09-26T23:42:47.131Z,2.50
2018-09-26T23:45:16.539Z,2.08
2018-09-26T23:47:46.680Z,2.10
2018-09-26T23:50:16.495Z,2.33
2018-09-26T23:52:45.800Z,2.40
2018-09-26T23:55:15.003Z,2.27
2018-09-26T23:57:44.712Z,2.00
